createdAt,value
2022-09-03T00:00:55.141Z,13.53
2022-09-03T00:03:44.550Z,13.44
2022-09-03T00:06:18.158Z,13.48
2022-09-03T00:08:50.861Z,13.40
2022-09-03T00:11:25.637Z,13.40
2022-09-03T00:14:07.833Z,13.33
2022-09-03T00:16:45.586Z,13.44
2022-09-03T00:19:17.912Z,13.38
2022-09-03T00:21:48.962Z,13.40
2022-09-03T00:24:19.327Z,13.33
2022-09-03T00:26:54.581Z,13.37
2022-09-03T00:29:46.656Z,13.23
2022-09-03T00:32:47.157Z,13.29
2022-09-03T00:35:47.547Z,13.20
2022-09-03T00:38:14.646Z,13.24
2022-09-03T00:41:03.154Z,13.24
2022-09-03T00:44:04.878Z,13.26
2022-09-03T00:46:37.477Z,13.22
2022-09-03T00:49:14.174Z,13.20
2022-09-03T00:52:06.850Z,13.04
2022-09-03T00:55:08.778Z,13.10
2022-09-03T00:57:52.638Z,12.97
2022-09-03T01:00:20.706Z,13.04
2022-09-03T01:03:07.985Z,13.05
2022-09-03T01:09:48.138Z,12.88
2022-09-03T01:12:32.924Z,12.83
2022-09-03T01:15:04.234Z,12.81
2022-09-03T01:17:33.838Z,12.72
2022-09-03T01:20:22.354Z,12.70
2022-09-03T01:23:06.841Z,12.66
2022-09-03T01:26:01.549Z,12.70
2022-09-03T01:28:42.274Z,12.63
2022-09-03T01:31:29.453Z,12.58
2022-09-03T01:34:12.893Z,12.55
2022-09-03T01:37:06.509Z,12.65
2022-09-03T01:40:03.387Z,12.62
2022-09-03T01:42:35.678Z,12.48
2022-09-03T01:45:23.760Z,12.55
2022-09-03T01:48:22.252Z,12.52
2022-09-03T01:51:09.132Z,12.54
2022-09-03T01:53:52.553Z,12.69
2022-09-03T01:56:25.811Z,12.83
2022-09-03T01:59:03.858Z,12.87
2022-09-03T02:01:56.939Z,12.75
2022-09-03T02:04:25.463Z,12.74
2022-09-03T02:06:53.942Z,12.74
2022-09-03T02:09:21.166Z,12.70
2022-09-03T02:11:55.151Z,12.84
2022-09-03T02:14:22.194Z,12.87
2022-09-03T02:16:50.310Z,12.58
2022-09-03T02:19:18.139Z,12.68
2022-09-03T02:21:51.067Z,12.65
2022-09-03T02:24:18.186Z,12.60
2022-09-03T02:26:45.057Z,12.45
2022-09-03T02:29:14.144Z,12.54
2022-09-03T02:31:40.770Z,12.57
2022-09-03T02:34:07.353Z,12.48
2022-09-03T02:36:38.163Z,12.53
2022-09-03T02:39:05.619Z,12.30
2022-09-03T02:41:33.013Z,12.24
2022-09-03T02:44:02.810Z,12.23
2022-09-03T02:46:50.241Z,12.54
2022-09-03T02:49:16.748Z,12.39
2022-09-03T02:51:44.850Z,12.20
2022-09-03T02:54:12.545Z,12.07
2022-09-03T02:56:39.070Z,11.98
2022-09-03T02:59:08.588Z,11.97
2022-09-03T03:01:36.559Z,12.11
2022-09-03T03:04:03.808Z,11.93
2022-09-03T03:06:30.282Z,11.98
2022-09-03T03:08:57.066Z,11.78
2022-09-03T03:11:26.302Z,11.82
2022-09-03T03:13:53.166Z,11.76
2022-09-03T03:16:19.696Z,11.89
2022-09-03T03:18:46.442Z,12.02
2022-09-03T03:21:16.017Z,11.76
2022-09-03T03:23:42.811Z,11.86
2022-09-03T03:26:12.085Z,12.00
2022-09-03T03:28:38.783Z,11.90
2022-09-03T03:31:07.750Z,11.79
2022-09-03T03:33:34.810Z,11.86
2022-09-03T03:36:14.594Z,11.71
2022-09-03T03:38:43.555Z,11.87
2022-09-03T03:41:22.717Z,11.52
2022-09-03T03:43:54.894Z,11.68
2022-09-03T03:46:23.312Z,11.72
2022-09-03T03:48:51.490Z,11.71
2022-09-03T03:51:19.330Z,11.75
2022-09-03T03:53:46.553Z,11.54
2022-09-03T03:56:15.130Z,11.46
2022-09-03T03:58:44.023Z,11.59
2022-09-03T04:01:16.376Z,11.49
2022-09-03T04:03:43.825Z,11.60
2022-09-03T04:06:12.412Z,11.73
2022-09-03T04:08:40.989Z,11.59
2022-09-03T04:11:10.417Z,11.21
2022-09-03T04:13:39.911Z,11.48
2022-09-03T04:16:21.199Z,11.44
2022-09-03T04:18:49.313Z,11.52
2022-09-03T04:21:19.106Z,11.45
2022-09-03T04:23:47.672Z,11.50
2022-09-03T04:26:17.342Z,11.21
2022-09-03T04:28:45.177Z,11.26
2022-09-03T04:31:14.552Z,11.38
2022-09-03T04:33:42.387Z,11.18
2022-09-03T04:36:13.550Z,11.40
2022-09-03T04:38:42.300Z,11.36
2022-09-03T04:41:11.656Z,11.36
2022-09-03T04:43:38.376Z,11.05
2022-09-03T04:46:10.848Z,11.28
2022-09-03T04:48:43.684Z,11.20
2022-09-03T04:51:13.391Z,11.41
2022-09-03T04:53:42.179Z,11.41
2022-09-03T04:56:22.184Z,11.22
2022-09-03T04:58:53.733Z,11.27
2022-09-03T05:01:23.038Z,11.56
2022-09-03T05:03:52.335Z,11.57
2022-09-03T05:06:19.096Z,11.59
2022-09-03T05:08:50.386Z,11.50
2022-09-03T05:11:17.763Z,11.34
2022-09-03T05:13:47.239Z,11.43
2022-09-03T05:16:13.804Z,11.64
2022-09-03T05:18:42.417Z,11.43
2022-09-03T05:21:10.679Z,11.68
2022-09-03T05:23:39.657Z,11.50
2022-09-03T05:26:11.596Z,11.66
2022-09-03T05:28:40.528Z,11.58
2022-09-03T05:31:12.949Z,11.83
2022-09-03T05:33:45.218Z,11.69
2022-09-03T05:36:14.308Z,11.83
2022-09-03T05:38:40.942Z,11.59
2022-09-03T05:41:10.066Z,11.68
2022-09-03T05:43:37.346Z,11.50
2022-09-03T05:46:06.568Z,11.89
2022-09-03T05:48:38.301Z,11.84
2022-09-03T05:51:04.719Z,12.19
2022-09-03T05:53:34.013Z,12.38
2022-09-03T05:56:03.255Z,12.27
2022-09-03T05:58:34.867Z,12.45
2022-09-03T06:01:10.284Z,12.17
2022-09-03T06:03:37.386Z,12.20
2022-09-03T06:06:05.368Z,12.16
2022-09-03T06:08:32.092Z,12.47
2022-09-03T06:11:00.068Z,12.37
2022-09-03T06:13:26.522Z,12.46
2022-09-03T06:16:19.278Z,12.56
2022-09-03T06:18:57.814Z,12.61
2022-09-03T06:21:24.397Z,12.36
2022-09-03T06:23:53.034Z,12.49
2022-09-03T06:26:20.860Z,12.62
2022-09-03T06:28:48.537Z,12.43
2022-09-03T06:31:19.993Z,12.24
2022-09-03T06:33:47.286Z,12.43
2022-09-03T06:36:16.410Z,12.72
2022-09-03T06:38:44.368Z,12.28
2022-09-03T06:41:15.045Z,12.44
2022-09-03T06:43:42.783Z,12.75
2022-09-03T06:46:17.304Z,12.60
2022-09-03T06:48:45.672Z,12.72
2022-09-03T06:51:21.027Z,12.55
2022-09-03T06:53:52.172Z,12.67
2022-09-03T06:56:27.165Z,12.90
2022-09-03T06:58:58.390Z,12.90
2022-09-03T07:01:31.387Z,12.96
2022-09-03T07:04:03.502Z,12.84
2022-09-03T07:06:32.512Z,12.77
2022-09-03T07:09:00.139Z,13.17
2022-09-03T07:11:31.326Z,13.36
2022-09-03T07:13:58.769Z,13.41
2022-09-03T07:16:34.291Z,13.65
2022-09-03T07:19:01.203Z,13.14
2022-09-03T07:21:30.171Z,13.41
2022-09-03T07:23:58.317Z,13.26
2022-09-03T07:26:30.529Z,13.64
2022-09-03T07:28:58.073Z,13.39
2022-09-03T07:31:33.548Z,13.61
2022-09-03T07:34:06.195Z,14.03
2022-09-03T07:36:42.908Z,13.88
2022-09-03T07:39:13.930Z,14.00
2022-09-03T07:41:44.066Z,13.98
2022-09-03T07:44:10.650Z,14.05
2022-09-03T07:46:38.091Z,14.52
2022-09-03T07:49:06.307Z,14.51
2022-09-03T07:51:38.451Z,14.57
2022-09-03T07:54:08.218Z,14.90
2022-09-03T07:56:35.859Z,14.61
2022-09-03T07:59:03.341Z,14.66
2022-09-03T08:01:33.687Z,14.68
2022-09-03T08:04:02.134Z,14.67
2022-09-03T08:06:31.026Z,14.84
2022-09-03T08:09:05.276Z,14.71
2022-09-03T08:11:36.489Z,14.79
2022-09-03T08:14:06.552Z,14.88
2022-09-03T08:16:44.562Z,14.89
2022-09-03T08:19:13.444Z,14.91
2022-09-03T08:21:42.140Z,15.54
2022-09-03T08:24:09.427Z,15.75
2022-09-03T08:26:38.061Z,15.68
2022-09-03T08:29:05.435Z,16.32
2022-09-03T08:31:33.866Z,17.50
2022-09-03T08:34:06.782Z,17.40
2022-09-03T08:36:35.839Z,17.70
2022-09-03T08:39:04.863Z,18.48
2022-09-03T08:41:53.639Z,18.13
2022-09-03T08:44:56.711Z,18.57
2022-09-03T08:47:44.215Z,19.01
2022-09-03T08:50:28.218Z,19.15
2022-09-03T08:53:09.790Z,20.61
2022-09-03T08:55:55.057Z,20.57
2022-09-03T08:58:25.857Z,20.23
2022-09-03T09:01:14.221Z,19.89
2022-09-03T09:04:03.728Z,19.98
2022-09-03T09:06:42.164Z,20.41
2022-09-03T09:10:05.548Z,20.42
2022-09-03T09:12:45.595Z,20.30
2022-09-03T09:15:34.971Z,20.94
2022-09-03T09:18:19.324Z,21.70
2022-09-03T09:20:53.025Z,22.14
2022-09-03T09:23:33.654Z,22.56
2022-09-03T09:26:06.601Z,22.11
2022-09-03T09:28:38.314Z,23.07
2022-09-03T09:31:07.823Z,23.79
2022-09-03T09:33:35.538Z,23.52
2022-09-03T09:36:05.172Z,23.12
2022-09-03T09:38:36.399Z,23.64
2022-09-03T09:41:20.208Z,23.26
2022-09-03T09:43:48.259Z,22.78
2022-09-03T09:46:21.535Z,22.52
2022-09-03T09:48:58.815Z,22.41
2022-09-03T09:51:31.324Z,22.95
2022-09-03T09:54:27.898Z,22.03
2022-09-03T09:57:03.576Z,22.84
2022-09-03T09:59:30.082Z,24.15
2022-09-03T10:02:28.839Z,24.49
2022-09-03T10:05:02.175Z,22.85
2022-09-03T10:07:32.886Z,23.20
2022-09-03T10:10:29.227Z,23.60
2022-09-03T10:13:12.585Z,23.48
2022-09-03T10:15:42.135Z,24.11
2022-09-03T10:18:29.065Z,23.41
2022-09-03T10:21:07.621Z,24.00
2022-09-03T10:23:42.007Z,22.74
2022-09-03T10:26:15.127Z,21.43
2022-09-03T10:28:42.783Z,20.99
2022-09-03T10:31:31.941Z,20.47
2022-09-03T10:34:07.718Z,20.11
2022-09-03T10:36:46.163Z,20.82
2022-09-03T10:39:52.531Z,21.35
2022-09-03T10:42:42.395Z,20.37
2022-09-03T10:45:18.061Z,20.52
2022-09-03T10:48:04.268Z,19.62
2022-09-03T10:50:52.624Z,19.26
2022-09-03T10:53:31.265Z,19.29
2022-09-03T10:56:04.663Z,20.00
2022-09-03T10:59:01.702Z,20.72
2022-09-03T11:01:36.974Z,20.98
2022-09-03T11:04:26.104Z,20.60
2022-09-03T11:07:02.665Z,20.90
2022-09-03T11:09:39.958Z,20.63
2022-09-03T11:12:15.182Z,20.38
2022-09-03T11:14:47.033Z,20.30
2022-09-03T11:17:28.332Z,19.95
2022-09-03T11:20:20.565Z,20.03
2022-09-03T11:22:49.336Z,20.55
2022-09-03T11:25:19.774Z,20.03
2022-09-03T11:27:56.856Z,20.31
2022-09-03T11:30:40.370Z,19.54
2022-09-03T11:33:11.646Z,20.19
2022-09-03T11:35:41.778Z,21.31
2022-09-03T11:38:17.155Z,21.30
2022-09-03T11:41:00.526Z,19.89
2022-09-03T11:43:30.948Z,19.99
2022-09-03T11:46:22.213Z,19.86
2022-09-03T11:48:51.473Z,19.80
2022-09-03T11:51:21.336Z,20.38
2022-09-03T11:53:58.503Z,21.08
2022-09-03T11:56:25.620Z,21.77
2022-09-03T11:59:02.567Z,23.24
2022-09-03T12:01:29.717Z,22.70
2022-09-03T12:04:03.310Z,22.67
2022-09-03T12:06:48.374Z,23.16
2022-09-03T12:09:25.420Z,22.33
2022-09-03T12:12:29.272Z,22.29
2022-09-03T12:15:14.486Z,22.26
2022-09-03T12:18:15.416Z,21.95
2022-09-03T12:20:43.123Z,21.93
2022-09-03T12:23:15.177Z,20.85
2022-09-03T12:25:47.456Z,20.89
2022-09-03T12:28:19.432Z,21.36
2022-09-03T12:30:46.867Z,20.58
2022-09-03T12:33:17.627Z,20.79
2022-09-03T12:36:00.096Z,21.05
2022-09-03T12:38:40.672Z,21.21
2022-09-03T12:41:26.819Z,20.84
2022-09-03T12:43:58.183Z,20.50
2022-09-03T12:46:33.801Z,21.14
2022-09-03T12:52:16.260Z,21.17
2022-09-03T12:54:52.525Z,20.82
2022-09-03T12:57:24.216Z,21.12
2022-09-03T12:59:54.554Z,20.97
2022-09-03T13:02:26.955Z,20.85
2022-09-03T13:04:54.727Z,20.96
2022-09-03T13:07:21.370Z,20.74
2022-09-03T13:09:48.550Z,20.92
2022-09-03T13:12:23.190Z,21.10
2022-09-03T13:14:50.676Z,20.37
2022-09-03T13:17:52.101Z,20.50
2022-09-03T13:20:34.038Z,20.65
2022-09-03T13:23:31.885Z,20.37
2022-09-03T13:26:33.824Z,20.26
2022-09-03T13:29:00.231Z,20.05
2022-09-03T13:31:38.793Z,20.16
2022-09-03T13:34:16.066Z,20.77
2022-09-03T13:36:51.820Z,20.70
2022-09-03T13:39:33.304Z,20.40
2022-09-03T13:42:09.527Z,20.56
2022-09-03T13:44:52.804Z,20.21
2022-09-03T13:47:32.577Z,20.49
2022-09-03T13:50:22.058Z,20.72
2022-09-03T13:53:04.022Z,20.89
2022-09-03T13:55:51.474Z,20.43
2022-09-03T13:58:42.328Z,20.08
2022-09-03T14:01:26.100Z,20.02
2022-09-03T14:04:00.862Z,20.17
2022-09-03T14:06:58.155Z,20.42
2022-09-03T14:09:37.437Z,20.19
2022-09-03T14:12:35.959Z,20.37
2022-09-03T14:15:08.459Z,20.41
2022-09-03T14:17:53.473Z,20.56
2022-09-03T14:20:30.729Z,20.49
2022-09-03T14:23:05.260Z,20.79
2022-09-03T14:25:32.801Z,20.49
2022-09-03T14:28:35.910Z,20.61
2022-09-03T14:31:22.789Z,20.38
2022-09-03T14:34:08.917Z,20.39
2022-09-03T14:37:03.935Z,20.45
2022-09-03T14:39:40.434Z,20.46
2022-09-03T14:42:06.916Z,20.72
2022-09-03T14:44:50.442Z,20.79
2022-09-03T14:47:49.590Z,20.71
2022-09-03T14:50:44.904Z,20.57
2022-09-03T14:53:26.390Z,20.48
2022-09-03T14:56:25.483Z,20.38
2022-09-03T14:59:19.379Z,20.15
2022-09-03T15:01:55.722Z,20.26
2022-09-03T15:04:33.103Z,20.25
2022-09-03T15:07:25.235Z,20.66
2022-09-03T15:10:02.427Z,20.72
2022-09-03T15:12:37.148Z,20.79
2022-09-03T15:15:41.828Z,20.63
2022-09-03T15:18:14.394Z,20.41
2022-09-03T15:20:51.850Z,20.60
2022-09-03T15:23:48.870Z,20.79
2022-09-03T15:26:48.283Z,20.43
2022-09-03T15:29:23.699Z,20.11
2022-09-03T15:32:22.427Z,20.12
2022-09-03T15:35:07.844Z,20.32
2022-09-03T15:37:55.320Z,20.16
2022-09-03T15:40:49.078Z,20.12
2022-09-03T15:43:23.053Z,20.28
2022-09-03T15:45:57.438Z,20.13
2022-09-03T15:48:53.288Z,20.00
2022-09-03T15:51:28.720Z,20.05
2022-09-03T15:53:58.773Z,20.02
2022-09-03T15:56:47.209Z,20.24
2022-09-03T15:59:23.675Z,19.73
2022-09-03T16:02:14.585Z,19.95
2022-09-03T16:04:46.968Z,20.16
2022-09-03T16:07:27.207Z,19.81
2022-09-03T16:10:25.794Z,19.89
2022-09-03T16:13:29.973Z,20.16
2022-09-03T16:16:05.392Z,20.29
2022-09-03T16:18:44.657Z,20.51
2022-09-03T16:21:30.750Z,20.07
2022-09-03T16:24:05.403Z,19.96
2022-09-03T16:26:42.156Z,20.27
2022-09-03T16:29:13.351Z,20.26
2022-09-03T16:32:02.805Z,20.15
2022-09-03T16:34:47.530Z,20.26
2022-09-03T16:37:51.785Z,20.11
2022-09-03T16:40:31.311Z,20.00
2022-09-03T16:42:57.721Z,19.84
2022-09-03T16:45:51.274Z,20.14
2022-09-03T16:48:29.142Z,20.11
2022-09-03T16:51:37.774Z,20.03
2022-09-03T16:54:09.066Z,19.70
2022-09-03T16:56:35.651Z,19.81
2022-09-03T16:59:20.474Z,19.66
2022-09-03T17:02:23.801Z,19.49
2022-09-03T17:05:15.192Z,19.83
2022-09-03T17:08:04.994Z,19.76
2022-09-03T17:10:54.947Z,19.41
2022-09-03T17:13:42.923Z,19.55
2022-09-03T17:16:30.801Z,19.45
2022-09-03T17:19:15.321Z,19.58
2022-09-03T17:22:18.029Z,19.30
2022-09-03T17:25:00.684Z,19.58
2022-09-03T17:27:34.202Z,19.56
2022-09-03T17:30:16.565Z,19.48
2022-09-03T17:33:05.000Z,19.36
2022-09-03T17:35:50.284Z,19.53
2022-09-03T17:38:38.196Z,19.33
2022-09-03T17:41:34.222Z,19.50
2022-09-03T17:44:20.852Z,19.34
2022-09-03T17:47:01.530Z,18.95
2022-09-03T17:49:34.121Z,19.02
2022-09-03T17:52:27.339Z,18.96
2022-09-03T17:55:00.019Z,18.95
2022-09-03T17:57:38.511Z,18.82
2022-09-03T18:00:22.848Z,18.88
2022-09-03T18:03:01.927Z,18.85
2022-09-03T18:05:33.373Z,18.78
2022-09-03T18:08:12.492Z,18.79
2022-09-03T18:10:49.138Z,18.58
2022-09-03T18:13:32.940Z,18.55
2022-09-03T18:16:08.291Z,18.63
2022-09-03T18:18:42.825Z,18.67
2022-09-03T18:21:32.075Z,18.70
2022-09-03T18:24:23.008Z,18.69
2022-09-03T18:27:15.604Z,18.67
2022-09-03T18:30:04.378Z,18.53
2022-09-03T18:32:49.490Z,18.54
2022-09-03T18:35:35.019Z,18.43
2022-09-03T18:38:23.816Z,18.41
2022-09-03T18:41:18.031Z,18.38
2022-09-03T18:44:23.921Z,18.31
2022-09-03T18:50:57.631Z,18.21
2022-09-03T18:54:01.392Z,18.33
2022-09-03T18:57:01.557Z,18.28
2022-09-03T19:00:08.196Z,18.20
2022-09-03T19:03:02.471Z,18.09
2022-09-03T19:05:57.918Z,18.13
2022-09-03T19:08:51.035Z,18.12
2022-09-03T19:11:53.588Z,18.14
2022-09-03T19:14:43.298Z,18.01
2022-09-03T19:17:34.368Z,18.13
2022-09-03T19:20:34.226Z,18.11
2022-09-03T19:23:21.761Z,18.05
2022-09-03T19:26:07.616Z,18.01
2022-09-03T19:29:03.361Z,18.05
2022-09-03T19:32:01.835Z,17.92
2022-09-03T19:35:21.216Z,17.81
2022-09-03T19:38:21.548Z,17.86
2022-09-03T19:41:19.894Z,17.97
2022-09-03T19:44:32.634Z,17.76
2022-09-03T19:47:21.331Z,17.92
2022-09-03T19:50:35.630Z,17.88
2022-09-03T19:53:25.997Z,17.83
2022-09-03T19:56:16.546Z,17.74
2022-09-03T19:59:08.760Z,17.85
2022-09-03T20:01:55.882Z,17.88
2022-09-03T20:04:50.794Z,17.93
2022-09-03T20:07:37.933Z,17.85
2022-09-03T20:10:24.046Z,17.84
2022-09-03T20:13:13.996Z,17.75
2022-09-03T20:15:49.667Z,17.60
2022-09-03T20:18:30.818Z,17.67
2022-09-03T20:21:12.846Z,17.74
2022-09-03T20:24:13.951Z,17.63
2022-09-03T20:27:00.409Z,17.38
2022-09-03T20:29:48.279Z,17.58
2022-09-03T20:32:17.412Z,17.57
2022-09-03T20:35:04.019Z,17.50
2022-09-03T20:38:01.474Z,17.49
2022-09-03T20:40:54.898Z,17.36
2022-09-03T20:43:33.364Z,17.44
2022-09-03T20:46:06.069Z,17.36
2022-09-03T20:48:45.836Z,17.31
2022-09-03T20:51:23.779Z,17.34
2022-09-03T20:53:59.191Z,17.24
2022-09-03T20:56:29.250Z,17.25
2022-09-03T20:59:06.766Z,17.24
2022-09-03T21:01:42.203Z,17.17
2022-09-03T21:04:34.063Z,17.06
2022-09-03T21:07:40.183Z,17.09
2022-09-03T21:10:09.697Z,17.10
2022-09-03T21:12:57.160Z,17.25
2022-09-03T21:15:32.582Z,17.04
2022-09-03T21:18:19.778Z,17.14
2022-09-03T21:20:48.922Z,17.02
2022-09-03T21:23:25.647Z,17.01
2022-09-03T21:26:15.932Z,17.00
2022-09-03T21:28:49.928Z,16.94
2022-09-03T21:31:25.670Z,16.98
2022-09-03T21:34:08.443Z,16.91
2022-09-03T21:36:35.861Z,16.91
2022-09-03T21:39:30.764Z,17.01
2022-09-03T21:42:10.029Z,16.90
2022-09-03T21:44:39.529Z,17.03
2022-09-03T21:47:12.796Z,17.08
2022-09-03T21:49:43.323Z,16.84
2022-09-03T21:52:19.467Z,16.99
2022-09-03T21:54:46.016Z,16.97
2022-09-03T21:57:31.221Z,16.86
2022-09-03T22:00:18.163Z,17.03
2022-09-03T22:02:49.320Z,16.97
2022-09-03T22:05:18.380Z,16.83
2022-09-03T22:07:59.219Z,16.67
2022-09-03T22:10:33.658Z,16.75
2022-09-03T22:13:18.753Z,16.77
2022-09-03T22:15:50.168Z,16.62
2022-09-03T22:18:28.485Z,16.56
2022-09-03T22:21:20.438Z,16.55
2022-09-03T22:24:10.309Z,16.49
2022-09-03T22:26:59.950Z,16.58
2022-09-03T22:29:46.657Z,16.36
2022-09-03T22:32:36.632Z,16.41
2022-09-03T22:35:23.166Z,16.33
2022-09-03T22:38:04.896Z,16.07
2022-09-03T22:40:52.137Z,16.22
2022-09-03T22:43:19.129Z,16.14
2022-09-03T22:45:54.638Z,16.13
2022-09-03T22:49:19.876Z,16.02
2022-09-03T22:52:04.392Z,15.92
2022-09-03T22:54:38.735Z,16.00
2022-09-03T22:57:07.832Z,16.01
2022-09-03T22:59:43.255Z,15.95
2022-09-03T23:02:20.561Z,15.70
2022-09-03T23:05:09.641Z,15.92
2022-09-03T23:07:57.230Z,15.77
2022-09-03T23:10:53.621Z,15.70
2022-09-03T23:13:22.705Z,15.71
2022-09-03T23:16:00.407Z,15.71
2022-09-03T23:18:31.037Z,15.34
2022-09-03T23:21:36.653Z,15.58
2022-09-03T23:24:26.074Z,15.74
2022-09-03T23:26:53.597Z,15.64
2022-09-03T23:29:29.147Z,15.73
2022-09-03T23:31:59.768Z,15.58
2022-09-03T23:34:27.407Z,15.58
2022-09-03T23:37:33.484Z,15.50
2022-09-03T23:40:12.703Z,15.64
2022-09-03T23:43:16.902Z,15.43
2022-09-03T23:45:55.749Z,15.54
2022-09-03T23:48:36.688Z,15.44
2022-09-03T23:51:18.001Z,15.59
2022-09-03T23:54:07.066Z,15.56
2022-09-03T23:56:48.556Z,15.43
2022-09-03T23:59:43.386Z,15.43
